sensor_id;sensor_type;location;lat;lon;timestamp;temperature;humidity
29803;DHT22;16702;50.898;4.662;2022-09-12T00:01:48;19.00;99.90
29803;DHT22;16702;50.898;4.662;2022-09-12T00:04:18;19.00;99.90
29803;DHT22;16702;50.898;4.662;2022-09-12T00:06:51;18.90;99.90
29803;DHT22;16702;50.898;4.662;2022-09-12T00:09:22;18.90;99.90
29803;DHT22;16702;50.898;4.662;2022-09-12T00:11:53;18.90;99.90
29803;DHT22;16702;50.898;4.662;2022-09-12T00:14:23;18.90;99.90
29803;DHT22;16702;50.898;4.662;2022-09-12T00:16:56;18.90;99.90
29803;DHT22;16702;50.898;4.662;2022-09-12T00:19:27;18.80;99.90
29803;DHT22;16702;50.898;4.662;2022-09-12T00:22:00;18.80;99.90
29803;DHT22;16702;50.898;4.662;2022-09-12T00:24:31;18.90;99.90
29803;DHT22;16702;50.898;4.662;2022-09-12T00:27:02;18.90;99.90
29803;DHT22;16702;50.898;4.662;2022-09-12T00:29:33;18.90;99.90
29803;DHT22;16702;50.898;4.662;2022-09-12T00:32:03;18.90;99.90
29803;DHT22;16702;50.898;4.662;2022-09-12T00:34:35;18.90;99.90
29803;DHT22;16702;50.898;4.662;2022-09-12T00:37:08;18.80;99.90
29803;DHT22;16702;50.898;4.662;2022-09-12T00:39:38;18.80;99.90
29803;DHT22;16702;50.898;4.662;2022-09-12T00:42:10;18.80;99.90
29803;DHT22;16702;50.898;4.662;2022-09-12T00:44:47;18.70;99.90
29803;DHT22;16702;50.898;4.662;2022-09-12T00:47:26;18.70;99.90
29803;DHT22;16702;50.898;4.662;2022-09-12T00:49:58;18.70;99.90
29803;DHT22;16702;50.898;4.662;2022-09-12T00:52:36;18.80;99.90
29803;DHT22;16702;50.898;4.662;2022-09-12T00:55:09;18.70;99.90
29803;DHT22;16702;50.898;4.662;2022-09-12T00:57:46;18.70;99.90
29803;DHT22;16702;50.898;4.662;2022-09-12T01:00:21;18.70;99.90
29803;DHT22;16702;50.898;4.662;2022-09-12T01:02:55;18.70;99.90
29803;DHT22;16702;50.898;4.662;2022-09-12T01:05:27;18.60;99.90
29803;DHT22;16702;50.898;4.662;2022-09-12T01:08:02;18.60;99.90
29803;DHT22;16702;50.898;4.662;2022-09-12T01:10:34;18.60;99.90
29803;DHT22;16702;50.898;4.662;2022-09-12T01:13:08;18.60;99.90
29803;DHT22;16702;50.898;4.662;2022-09-12T01:15:39;18.60;99.90
29803;DHT22;16702;50.898;4.662;2022-09-12T01:18:15;18.60;99.90
29803;DHT22;16702;50.898;4.662;2022-09-12T01:21:10;18.60;99.90
29803;DHT22;16702;50.898;4.662;2022-09-12T01:24:18;18.60;99.90
29803;DHT22;16702;50.898;4.662;2022-09-12T01:27:18;18.60;99.90
29803;DHT22;16702;50.898;4.662;2022-09-12T01:30:21;18.50;99.90
29803;DHT22;16702;50.898;4.662;2022-09-12T01:35:52;18.60;99.90
29803;DHT22;16702;50.898;4.662;2022-09-12T01:38:30;18.50;99.90
29803;DHT22;16702;50.898;4.662;2022-09-12T01:41:10;18.50;99.90
29803;DHT22;16702;50.898;4.662;2022-09-12T01:43:45;18.50;99.90
29803;DHT22;16702;50.898;4.662;2022-09-12T01:46:25;18.60;99.90
29803;DHT22;16702;50.898;4.662;2022-09-12T01:49:01;18.50;99.90
29803;DHT22;16702;50.898;4.662;2022-09-12T01:51:38;18.60;99.90
29803;DHT22;16702;50.898;4.662;2022-09-12T01:54:15;18.50;99.90
29803;DHT22;16702;50.898;4.662;2022-09-12T01:56:50;18.50;99.90
29803;DHT22;16702;50.898;4.662;2022-09-12T01:59:25;18.50;99.90
29803;DHT22;16702;50.898;4.662;2022-09-12T02:02:03;18.50;99.90
29803;DHT22;16702;50.898;4.662;2022-09-12T02:04:39;18.40;99.90
29803;DHT22;16702;50.898;4.662;2022-09-12T02:07:14;18.30;99.90
29803;DHT22;16702;50.898;4.662;2022-09-12T02:09:48;18.40;99.90
29803;DHT22;16702;50.898;4.662;2022-09-12T02:12:24;18.30;99.90
29803;DHT22;16702;50.898;4.662;2022-09-12T02:14:58;18.30;99.90
29803;DHT22;16702;50.898;4.662;2022-09-12T02:17:36;18.30;99.90
29803;DHT22;16702;50.898;4.662;2022-09-12T02:20:12;18.20;99.90
29803;DHT22;16702;50.898;4.662;2022-09-12T02:23:08;18.20;99.90
29803;DHT22;16702;50.898;4.662;2022-09-12T02:25:44;18.20;99.90
29803;DHT22;16702;50.898;4.662;2022-09-12T02:28:17;18.30;99.90
29803;DHT22;16702;50.898;4.662;2022-09-12T02:30:53;18.30;99.90
29803;DHT22;16702;50.898;4.662;2022-09-12T02:33:31;18.30;99.90
29803;DHT22;16702;50.898;4.662;2022-09-12T02:36:08;18.20;99.90
29803;DHT22;16702;50.898;4.662;2022-09-12T02:38:45;18.20;99.90
29803;DHT22;16702;50.898;4.662;2022-09-12T02:41:17;18.30;99.90
29803;DHT22;16702;50.898;4.662;2022-09-12T02:43:49;18.30;99.90
29803;DHT22;16702;50.898;4.662;2022-09-12T02:46:24;18.20;99.90
29803;DHT22;16702;50.898;4.662;2022-09-12T02:48:58;18.20;99.90
29803;DHT22;16702;50.898;4.662;2022-09-12T02:51:28;18.10;99.90
29803;DHT22;16702;50.898;4.662;2022-09-12T02:53:59;18.10;99.90
29803;DHT22;16702;50.898;4.662;2022-09-12T02:56:33;18.00;99.90
29803;DHT22;16702;50.898;4.662;2022-09-12T02:59:05;18.00;99.90
29803;DHT22;16702;50.898;4.662;2022-09-12T03:01:47;18.00;99.90
29803;DHT22;16702;50.898;4.662;2022-09-12T03:04:34;17.90;99.90
29803;DHT22;16702;50.898;4.662;2022-09-12T03:07:10;17.90;99.90
29803;DHT22;16702;50.898;4.662;2022-09-12T03:09:46;18.00;99.90
29803;DHT22;16702;50.898;4.662;2022-09-12T03:12:25;18.00;99.90
29803;DHT22;16702;50.898;4.662;2022-09-12T03:15:11;17.90;99.90
29803;DHT22;16702;50.898;4.662;2022-09-12T03:17:56;18.00;99.90
29803;DHT22;16702;50.898;4.662;2022-09-12T03:20:40;18.00;99.90
29803;DHT22;16702;50.898;4.662;2022-09-12T03:23:23;17.90;99.90
29803;DHT22;16702;50.898;4.662;2022-09-12T03:25:58;17.90;99.90
29803;DHT22;16702;50.898;4.662;2022-09-12T03:28:30;17.90;99.90
29803;DHT22;16702;50.898;4.662;2022-09-12T03:31:11;17.90;99.90
29803;DHT22;16702;50.898;4.662;2022-09-12T03:33:42;17.90;99.90
29803;DHT22;16702;50.898;4.662;2022-09-12T03:36:19;17.90;99.90
29803;DHT22;16702;50.898;4.662;2022-09-12T03:38:51;17.90;99.90
29803;DHT22;16702;50.898;4.662;2022-09-12T03:41:21;17.90;99.90
29803;DHT22;16702;50.898;4.662;2022-09-12T03:43:51;17.80;99.90
29803;DHT22;16702;50.898;4.662;2022-09-12T03:46:23;17.80;99.90
29803;DHT22;16702;50.898;4.662;2022-09-12T03:48:53;17.80;99.90
29803;DHT22;16702;50.898;4.662;2022-09-12T03:51:26;17.80;99.90
29803;DHT22;16702;50.898;4.662;2022-09-12T03:53:57;17.70;99.90
29803;DHT22;16702;50.898;4.662;2022-09-12T03:56:27;17.60;99.90
29803;DHT22;16702;50.898;4.662;2022-09-12T03:58:58;17.70;99.90
29803;DHT22;16702;50.898;4.662;2022-09-12T04:01:28;17.60;99.90
29803;DHT22;16702;50.898;4.662;2022-09-12T04:03:59;17.60;99.90
29803;DHT22;16702;50.898;4.662;2022-09-12T04:06:32;17.70;99.90
29803;DHT22;16702;50.898;4.662;2022-09-12T04:09:02;17.60;99.90
29803;DHT22;16702;50.898;4.662;2022-09-12T04:11:33;17.60;99.90
29803;DHT22;16702;50.898;4.662;2022-09-12T04:14:04;17.70;99.90
29803;DHT22;16702;50.898;4.662;2022-09-12T04:16:35;17.60;99.90
29803;DHT22;16702;50.898;4.662;2022-09-12T04:19:06;17.60;99.90
29803;DHT22;16702;50.898;4.662;2022-09-12T04:21:39;17.60;99.90
29803;DHT22;16702;50.898;4.662;2022-09-12T04:24:09;17.60;99.90
29803;DHT22;16702;50.898;4.662;2022-09-12T04:26:39;17.60;99.90
29803;DHT22;16702;50.898;4.662;2022-09-12T04:29:11;17.60;99.90
29803;DHT22;16702;50.898;4.662;2022-09-12T04:31:41;17.60;99.90
29803;DHT22;16702;50.898;4.662;2022-09-12T04:34:12;17.50;99.90
29803;DHT22;16702;50.898;4.662;2022-09-12T04:36:45;17.50;99.90
29803;DHT22;16702;50.898;4.662;2022-09-12T04:39:15;17.50;99.90
29803;DHT22;16702;50.898;4.662;2022-09-12T04:41:46;17.50;99.90
29803;DHT22;16702;50.898;4.662;2022-09-12T04:44:16;17.50;99.90
29803;DHT22;16702;50.898;4.662;2022-09-12T04:46:47;17.50;99.90
29803;DHT22;16702;50.898;4.662;2022-09-12T04:49:19;17.50;99.90
29803;DHT22;16702;50.898;4.662;2022-09-12T04:51:52;17.50;99.90
29803;DHT22;16702;50.898;4.662;2022-09-12T04:54:23;17.50;99.90
29803;DHT22;16702;50.898;4.662;2022-09-12T04:56:53;17.50;99.90
29803;DHT22;16702;50.898;4.662;2022-09-12T04:59:23;17.50;99.90
29803;DHT22;16702;50.898;4.662;2022-09-12T05:01:54;17.50;99.90
29803;DHT22;16702;50.898;4.662;2022-09-12T05:04:25;17.40;99.90
29803;DHT22;16702;50.898;4.662;2022-09-12T05:06:58;17.40;99.90
29803;DHT22;16702;50.898;4.662;2022-09-12T05:09:28;17.40;99.90
29803;DHT22;16702;50.898;4.662;2022-09-12T05:11:58;17.40;99.90
29803;DHT22;16702;50.898;4.662;2022-09-12T05:14:32;17.30;99.90
29803;DHT22;16702;50.898;4.662;2022-09-12T05:17:04;17.30;99.90
29803;DHT22;16702;50.898;4.662;2022-09-12T05:19:34;17.30;99.90
29803;DHT22;16702;50.898;4.662;2022-09-12T05:22:08;17.30;99.90
29803;DHT22;16702;50.898;4.662;2022-09-12T05:24:38;17.30;99.90
29803;DHT22;16702;50.898;4.662;2022-09-12T05:27:15;17.20;99.90
29803;DHT22;16702;50.898;4.662;2022-09-12T05:29:46;17.20;99.90
29803;DHT22;16702;50.898;4.662;2022-09-12T05:32:16;17.20;99.90
29803;DHT22;16702;50.898;4.662;2022-09-12T05:34:47;17.10;99.90
29803;DHT22;16702;50.898;4.662;2022-09-12T05:37:20;17.20;99.90
29803;DHT22;16702;50.898;4.662;2022-09-12T05:39:50;17.20;99.90
29803;DHT22;16702;50.898;4.662;2022-09-12T05:42:21;17.20;99.90
29803;DHT22;16702;50.898;4.662;2022-09-12T05:44:51;17.10;99.90
29803;DHT22;16702;50.898;4.662;2022-09-12T05:47:23;17.10;99.90
29803;DHT22;16702;50.898;4.662;2022-09-12T05:49:53;17.00;99.90
29803;DHT22;16702;50.898;4.662;2022-09-12T05:52:28;17.10;99.90
29803;DHT22;16702;50.898;4.662;2022-09-12T05:54:58;17.10;99.90
29803;DHT22;16702;50.898;4.662;2022-09-12T05:57:29;17.10;99.90
29803;DHT22;16702;50.898;4.662;2022-09-12T05:59:59;17.10;99.90
29803;DHT22;16702;50.898;4.662;2022-09-12T06:02:37;17.00;99.90
29803;DHT22;16702;50.898;4.662;2022-09-12T06:05:08;17.10;99.90
29803;DHT22;16702;50.898;4.662;2022-09-12T06:07:41;17.10;99.90
29803;DHT22;16702;50.898;4.662;2022-09-12T06:10:12;17.10;99.90
29803;DHT22;16702;50.898;4.662;2022-09-12T06:12:45;17.10;99.90
29803;DHT22;16702;50.898;4.662;2022-09-12T06:15:15;17.10;99.90
29803;DHT22;16702;50.898;4.662;2022-09-12T06:17:47;17.10;99.90
29803;DHT22;16702;50.898;4.662;2022-09-12T06:20:18;17.10;99.90
29803;DHT22;16702;50.898;4.662;2022-09-12T06:22:52;17.10;99.90
29803;DHT22;16702;50.898;4.662;2022-09-12T06:25:22;17.10;99.90
29803;DHT22;16702;50.898;4.662;2022-09-12T06:27:53;17.10;99.90
29803;DHT22;16702;50.898;4.662;2022-09-12T06:30:23;17.10;99.90
29803;DHT22;16702;50.898;4.662;2022-09-12T06:32:54;17.10;99.90
29803;DHT22;16702;50.898;4.662;2022-09-12T06:35:25;17.10;99.90
29803;DHT22;16702;50.898;4.662;2022-09-12T06:37:58;17.10;99.90
29803;DHT22;16702;50.898;4.662;2022-09-12T06:40:28;17.20;99.90
29803;DHT22;16702;50.898;4.662;2022-09-12T06:42:59;17.20;99.90
29803;DHT22;16702;50.898;4.662;2022-09-12T06:45:32;17.30;99.90
29803;DHT22;16702;50.898;4.662;2022-09-12T06:48:03;17.20;99.90
29803;DHT22;16702;50.898;4.662;2022-09-12T06:50:33;17.30;99.90
29803;DHT22;16702;50.898;4.662;2022-09-12T06:53:06;17.30;99.90
29803;DHT22;16702;50.898;4.662;2022-09-12T06:55:36;17.40;99.90
29803;DHT22;16702;50.898;4.662;2022-09-12T06:58:08;17.40;99.90
29803;DHT22;16702;50.898;4.662;2022-09-12T07:00:39;17.40;99.90
29803;DHT22;16702;50.898;4.662;2022-09-12T07:03:09;17.40;99.90
29803;DHT22;16702;50.898;4.662;2022-09-12T07:05:40;17.40;99.90
29803;DHT22;16702;50.898;4.662;2022-09-12T07:08:13;17.40;99.90
29803;DHT22;16702;50.898;4.662;2022-09-12T07:10:43;17.40;99.90
29803;DHT22;16702;50.898;4.662;2022-09-12T07:13:13;17.50;99.90
29803;DHT22;16702;50.898;4.662;2022-09-12T07:15:44;17.60;99.90
29803;DHT22;16702;50.898;4.662;2022-09-12T07:18:15;17.60;99.90
29803;DHT22;16702;50.898;4.662;2022-09-12T07:20:45;17.60;99.90
29803;DHT22;16702;50.898;4.662;2022-09-12T07:23:18;17.60;99.90
29803;DHT22;16702;50.898;4.662;2022-09-12T07:25:51;17.70;99.90
29803;DHT22;16702;50.898;4.662;2022-09-12T07:28:23;17.70;99.90
29803;DHT22;16702;50.898;4.662;2022-09-12T07:30:54;17.80;99.90
29803;DHT22;16702;50.898;4.662;2022-09-12T07:33:27;17.80;99.90
29803;DHT22;16702;50.898;4.662;2022-09-12T07:36:00;17.80;99.90
29803;DHT22;16702;50.898;4.662;2022-09-12T07:38:33;17.80;99.90
29803;DHT22;16702;50.898;4.662;2022-09-12T07:41:10;17.90;99.90
29803;DHT22;16702;50.898;4.662;2022-09-12T07:43:41;17.90;99.90
29803;DHT22;16702;50.898;4.662;2022-09-12T07:46:13;18.00;99.90
29803;DHT22;16702;50.898;4.662;2022-09-12T07:48:43;18.00;99.90
29803;DHT22;16702;50.898;4.662;2022-09-12T07:51:14;18.10;99.90
29803;DHT22;16702;50.898;4.662;2022-09-12T07:53:48;18.10;99.90
29803;DHT22;16702;50.898;4.662;2022-09-12T07:56:19;18.20;99.90
29803;DHT22;16702;50.898;4.662;2022-09-12T07:58:56;18.20;99.90
29803;DHT22;16702;50.898;4.662;2022-09-12T08:01:26;18.20;99.90
29803;DHT22;16702;50.898;4.662;2022-09-12T08:10:49;18.40;99.90
29803;DHT22;16702;50.898;4.662;2022-09-12T08:13:26;18.50;99.90
29803;DHT22;16702;50.898;4.662;2022-09-12T08:15:57;18.50;99.90
29803;DHT22;16702;50.898;4.662;2022-09-12T08:18:30;18.60;99.90
29803;DHT22;16702;50.898;4.662;2022-09-12T08:21:04;18.70;99.90
29803;DHT22;16702;50.898;4.662;2022-09-12T08:23:35;18.70;99.90
29803;DHT22;16702;50.898;4.662;2022-09-12T08:26:09;18.70;99.90
29803;DHT22;16702;50.898;4.662;2022-09-12T08:28:42;18.70;99.90
29803;DHT22;16702;50.898;4.662;2022-09-12T08:31:15;18.80;99.90
29803;DHT22;16702;50.898;4.662;2022-09-12T08:33:46;18.80;99.90
29803;DHT22;16702;50.898;4.662;2022-09-12T08:36:18;18.90;99.90
29803;DHT22;16702;50.898;4.662;2022-09-12T08:38:50;19.00;99.90
29803;DHT22;16702;50.898;4.662;2022-09-12T08:41:32;19.00;99.90
29803;DHT22;16702;50.898;4.662;2022-09-12T08:47:08;19.10;99.90
29803;DHT22;16702;50.898;4.662;2022-09-12T08:49:46;19.20;99.90
29803;DHT22;16702;50.898;4.662;2022-09-12T08:52:23;19.20;99.90
29803;DHT22;16702;50.898;4.662;2022-09-12T08:54:55;19.30;99.90
29803;DHT22;16702;50.898;4.662;2022-09-12T08:57:28;19.30;99.90
29803;DHT22;16702;50.898;4.662;2022-09-12T08:59:59;19.30;99.90
29803;DHT22;16702;50.898;4.662;2022-09-12T09:02:45;19.40;99.90
29803;DHT22;16702;50.898;4.662;2022-09-12T09:05:33;19.50;99.90
29803;DHT22;16702;50.898;4.662;2022-09-12T09:08:25;19.60;99.90
29803;DHT22;16702;50.898;4.662;2022-09-12T09:11:03;19.60;99.90
29803;DHT22;16702;50.898;4.662;2022-09-12T09:13:48;19.60;99.90
29803;DHT22;16702;50.898;4.662;2022-09-12T09:16:37;19.60;99.90
29803;DHT22;16702;50.898;4.662;2022-09-12T09:19:11;19.70;99.90
29803;DHT22;16702;50.898;4.662;2022-09-12T09:21:48;19.70;99.90
29803;DHT22;16702;50.898;4.662;2022-09-12T09:24:23;19.90;99.90
29803;DHT22;16702;50.898;4.662;2022-09-12T09:26:57;19.90;99.90
29803;DHT22;16702;50.898;4.662;2022-09-12T09:29:53;20.00;99.90
29803;DHT22;16702;50.898;4.662;2022-09-12T09:32:27;20.00;99.90
29803;DHT22;16702;50.898;4.662;2022-09-12T09:35:16;20.00;99.90
29803;DHT22;16702;50.898;4.662;2022-09-12T09:38:00;20.10;99.90
29803;DHT22;16702;50.898;4.662;2022-09-12T09:40:39;20.20;99.90
29803;DHT22;16702;50.898;4.662;2022-09-12T09:43:18;20.40;99.90
29803;DHT22;16702;50.898;4.662;2022-09-12T09:45:52;20.40;99.90
29803;DHT22;16702;50.898;4.662;2022-09-12T09:48:26;20.50;99.90
29803;DHT22;16702;50.898;4.662;2022-09-12T09:50:59;20.60;99.90
29803;DHT22;16702;50.898;4.662;2022-09-12T09:53:36;20.60;99.90
29803;DHT22;16702;50.898;4.662;2022-09-12T09:56:12;20.70;99.90
29803;DHT22;16702;50.898;4.662;2022-09-12T09:58:49;20.80;99.90
29803;DHT22;16702;50.898;4.662;2022-09-12T10:01:23;20.90;99.90
29803;DHT22;16702;50.898;4.662;2022-09-12T10:03:55;21.00;99.90
29803;DHT22;16702;50.898;4.662;2022-09-12T10:06:30;21.00;99.90
29803;DHT22;16702;50.898;4.662;2022-09-12T10:09:15;21.10;99.90
29803;DHT22;16702;50.898;4.662;2022-09-12T10:11:47;21.10;99.90
29803;DHT22;16702;50.898;4.662;2022-09-12T10:14:33;21.10;99.90
29803;DHT22;16702;50.898;4.662;2022-09-12T10:17:27;21.20;99.90
29803;DHT22;16702;50.898;4.662;2022-09-12T10:20:01;21.30;99.90
29803;DHT22;16702;50.898;4.662;2022-09-12T10:22:48;21.40;99.90
29803;DHT22;16702;50.898;4.662;2022-09-12T10:25:19;21.40;99.90
29803;DHT22;16702;50.898;4.662;2022-09-12T10:27:55;21.50;99.90
29803;DHT22;16702;50.898;4.662;2022-09-12T10:30:26;21.50;99.90
29803;DHT22;16702;50.898;4.662;2022-09-12T10:33:07;21.70;99.90
29803;DHT22;16702;50.898;4.662;2022-09-12T10:35:43;21.80;99.90
29803;DHT22;16702;50.898;4.662;2022-09-12T10:38:24;21.80;99.90
29803;DHT22;16702;50.898;4.662;2022-09-12T10:41:00;21.90;99.90
29803;DHT22;16702;50.898;4.662;2022-09-12T10:43:34;21.90;99.90
29803;DHT22;16702;50.898;4.662;2022-09-12T10:46:25;22.00;99.90
29803;DHT22;16702;50.898;4.662;2022-09-12T10:49:20;22.10;99.90
29803;DHT22;16702;50.898;4.662;2022-09-12T10:51:52;22.20;99.90
29803;DHT22;16702;50.898;4.662;2022-09-12T10:54:25;22.30;99.90
29803;DHT22;16702;50.898;4.662;2022-09-12T11:00:08;22.30;99.90
29803;DHT22;16702;50.898;4.662;2022-09-12T11:02:50;22.40;99.90
29803;DHT22;16702;50.898;4.662;2022-09-12T11:05:44;22.50;99.90
29803;DHT22;16702;50.898;4.662;2022-09-12T11:08:30;22.60;99.90
29803;DHT22;16702;50.898;4.662;2022-09-12T11:11:16;22.60;99.90
29803;DHT22;16702;50.898;4.662;2022-09-12T11:14:09;22.80;99.90
29803;DHT22;16702;50.898;4.662;2022-09-12T11:16:46;22.80;99.90
29803;DHT22;16702;50.898;4.662;2022-09-12T11:19:38;22.90;99.90
29803;DHT22;16702;50.898;4.662;2022-09-12T11:22:29;22.90;99.90
29803;DHT22;16702;50.898;4.662;2022-09-12T11:25:22;23.00;99.90
29803;DHT22;16702;50.898;4.662;2022-09-12T11:28:20;23.00;99.90
29803;DHT22;16702;50.898;4.662;2022-09-12T11:31:12;23.00;99.90
29803;DHT22;16702;50.898;4.662;2022-09-12T11:33:47;23.10;99.90
29803;DHT22;16702;50.898;4.662;2022-09-12T11:36:28;23.20;99.90
29803;DHT22;16702;50.898;4.662;2022-09-12T11:39:11;23.30;99.90
29803;DHT22;16702;50.898;4.662;2022-09-12T11:41:44;23.30;99.90
29803;DHT22;16702;50.898;4.662;2022-09-12T11:44:19;23.30;99.90
29803;DHT22;16702;50.898;4.662;2022-09-12T11:46:51;23.30;99.90
29803;DHT22;16702;50.898;4.662;2022-09-12T11:49:30;23.50;99.90
29803;DHT22;16702;50.898;4.662;2022-09-12T11:52:05;23.50;99.90
29803;DHT22;16702;50.898;4.662;2022-09-12T11:54:45;23.60;99.90
29803;DHT22;16702;50.898;4.662;2022-09-12T11:57:24;23.70;99.90
29803;DHT22;16702;50.898;4.662;2022-09-12T11:59:58;23.70;99.90
29803;DHT22;16702;50.898;4.662;2022-09-12T12:02:35;23.80;99.90
29803;DHT22;16702;50.898;4.662;2022-09-12T12:05:18;23.90;99.90
29803;DHT22;16702;50.898;4.662;2022-09-12T12:07:52;23.90;99.90
29803;DHT22;16702;50.898;4.662;2022-09-12T12:10:31;24.00;99.90
29803;DHT22;16702;50.898;4.662;2022-09-12T12:13:05;24.00;99.90
29803;DHT22;16702;50.898;4.662;2022-09-12T12:15:44;24.20;99.90
29803;DHT22;16702;50.898;4.662;2022-09-12T12:18:18;24.30;99.90
29803;DHT22;16702;50.898;4.662;2022-09-12T12:20:52;24.40;99.90
29803;DHT22;16702;50.898;4.662;2022-09-12T12:23:28;24.30;99.90
29803;DHT22;16702;50.898;4.662;2022-09-12T12:26:02;24.30;99.90
29803;DHT22;16702;50.898;4.662;2022-09-12T12:28:57;24.40;99.90
29803;DHT22;16702;50.898;4.662;2022-09-12T12:31:28;24.50;99.90
29803;DHT22;16702;50.898;4.662;2022-09-12T12:34:20;24.30;99.90
29803;DHT22;16702;50.898;4.662;2022-09-12T12:36:51;24.50;99.90
29803;DHT22;16702;50.898;4.662;2022-09-12T12:42:59;24.70;99.90
29803;DHT22;16702;50.898;4.662;2022-09-12T12:49:09;24.80;99.90
29803;DHT22;16702;50.898;4.662;2022-09-12T12:51:55;24.90;99.90
29803;DHT22;16702;50.898;4.662;2022-09-12T12:57:50;25.20;99.90
29803;DHT22;16702;50.898;4.662;2022-09-12T13:00:31;25.10;99.90
29803;DHT22;16702;50.898;4.662;2022-09-12T13:03:17;25.20;99.90
29803;DHT22;16702;50.898;4.662;2022-09-12T13:05:54;25.30;99.90
29803;DHT22;16702;50.898;4.662;2022-09-12T13:08:29;25.40;99.50
29803;DHT22;16702;50.898;4.662;2022-09-12T13:11:06;25.40;98.50
29803;DHT22;16702;50.898;4.662;2022-09-12T13:13:39;25.30;98.30
29803;DHT22;16702;50.898;4.662;2022-09-12T13:16:29;25.40;98.80
29803;DHT22;16702;50.898;4.662;2022-09-12T13:19:05;25.30;99.50
29803;DHT22;16702;50.898;4.662;2022-09-12T13:21:36;25.40;99.40
29803;DHT22;16702;50.898;4.662;2022-09-12T13:24:13;25.40;99.00
29803;DHT22;16702;50.898;4.662;2022-09-12T13:26:44;25.50;98.30
29803;DHT22;16702;50.898;4.662;2022-09-12T13:29:18;25.60;97.80
29803;DHT22;16702;50.898;4.662;2022-09-12T13:31:54;25.60;98.40
29803;DHT22;16702;50.898;4.662;2022-09-12T13:34:27;25.60;98.20
29803;DHT22;16702;50.898;4.662;2022-09-12T13:40:16;25.60;98.50
29803;DHT22;16702;50.898;4.662;2022-09-12T13:43:01;25.80;97.70
29803;DHT22;16702;50.898;4.662;2022-09-12T13:45:37;25.90;98.20
29803;DHT22;16702;50.898;4.662;2022-09-12T13:48:14;26.00;98.30
29803;DHT22;16702;50.898;4.662;2022-09-12T13:50:50;25.90;97.60
29803;DHT22;16702;50.898;4.662;2022-09-12T13:53:23;26.00;97.60
29803;DHT22;16702;50.898;4.662;2022-09-12T13:55:57;26.10;97.80
29803;DHT22;16702;50.898;4.662;2022-09-12T13:58:31;26.10;97.70
29803;DHT22;16702;50.898;4.662;2022-09-12T14:01:05;26.10;97.20
29803;DHT22;16702;50.898;4.662;2022-09-12T14:03:46;26.10;97.60
29803;DHT22;16702;50.898;4.662;2022-09-12T14:06:35;26.20;97.00
29803;DHT22;16702;50.898;4.662;2022-09-12T14:09:16;26.00;97.00
29803;DHT22;16702;50.898;4.662;2022-09-12T14:11:52;26.10;97.30
29803;DHT22;16702;50.898;4.662;2022-09-12T14:14:26;26.10;97.10
29803;DHT22;16702;50.898;4.662;2022-09-12T14:16:59;26.10;97.00
29803;DHT22;16702;50.898;4.662;2022-09-12T14:19:32;26.30;96.70
29803;DHT22;16702;50.898;4.662;2022-09-12T14:22:02;26.30;96.80
29803;DHT22;16702;50.898;4.662;2022-09-12T14:24:33;26.30;96.30
29803;DHT22;16702;50.898;4.662;2022-09-12T14:27:04;26.30;96.70
29803;DHT22;16702;50.898;4.662;2022-09-12T14:29:34;26.30;97.00
29803;DHT22;16702;50.898;4.662;2022-09-12T14:32:21;26.40;97.10
29803;DHT22;16702;50.898;4.662;2022-09-12T14:35:16;26.50;97.40
29803;DHT22;16702;50.898;4.662;2022-09-12T14:37:49;26.50;96.20
29803;DHT22;16702;50.898;4.662;2022-09-12T14:40:21;26.50;96.00
29803;DHT22;16702;50.898;4.662;2022-09-12T14:42:52;26.60;96.60
29803;DHT22;16702;50.898;4.662;2022-09-12T14:45:29;26.60;96.20
29803;DHT22;16702;50.898;4.662;2022-09-12T14:48:00;26.60;95.30
29803;DHT22;16702;50.898;4.662;2022-09-12T14:50:34;26.70;95.80
29803;DHT22;16702;50.898;4.662;2022-09-12T14:53:18;26.80;95.80
29803;DHT22;16702;50.898;4.662;2022-09-12T14:55:51;26.80;96.40
29803;DHT22;16702;50.898;4.662;2022-09-12T14:58:25;26.80;96.30
29803;DHT22;16702;50.898;4.662;2022-09-12T15:00:58;26.90;96.40
29803;DHT22;16702;50.898;4.662;2022-09-12T15:03:31;26.90;96.20
29803;DHT22;16702;50.898;4.662;2022-09-12T15:06:16;27.00;95.60
29803;DHT22;16702;50.898;4.662;2022-09-12T15:08:48;27.00;95.30
29803;DHT22;16702;50.898;4.662;2022-09-12T15:11:20;26.90;95.10
29803;DHT22;16702;50.898;4.662;2022-09-12T15:13:51;26.90;94.80
29803;DHT22;16702;50.898;4.662;2022-09-12T15:16:22;26.90;95.10
29803;DHT22;16702;50.898;4.662;2022-09-12T15:18:52;26.80;94.90
29803;DHT22;16702;50.898;4.662;2022-09-12T15:21:25;26.80;94.60
29803;DHT22;16702;50.898;4.662;2022-09-12T15:23:56;26.70;95.60
29803;DHT22;16702;50.898;4.662;2022-09-12T15:26:28;26.80;95.10
29803;DHT22;16702;50.898;4.662;2022-09-12T15:28:59;26.80;95.40
29803;DHT22;16702;50.898;4.662;2022-09-12T15:31:30;26.80;94.80
29803;DHT22;16702;50.898;4.662;2022-09-12T15:34:01;26.80;95.20
29803;DHT22;16702;50.898;4.662;2022-09-12T15:36:34;26.80;96.00
29803;DHT22;16702;50.898;4.662;2022-09-12T15:39:05;26.80;94.30
29803;DHT22;16702;50.898;4.662;2022-09-12T15:41:36;26.80;94.70
29803;DHT22;16702;50.898;4.662;2022-09-12T15:44:11;26.90;93.90
29803;DHT22;16702;50.898;4.662;2022-09-12T15:46:41;26.90;93.60
29803;DHT22;16702;50.898;4.662;2022-09-12T15:49:12;26.90;93.90
29803;DHT22;16702;50.898;4.662;2022-09-12T15:51:45;27.00;93.60
29803;DHT22;16702;50.898;4.662;2022-09-12T15:54:16;27.10;93.60
29803;DHT22;16702;50.898;4.662;2022-09-12T15:56:48;27.10;94.70
29803;DHT22;16702;50.898;4.662;2022-09-12T15:59:19;27.10;94.80
29803;DHT22;16702;50.898;4.662;2022-09-12T16:01:49;27.20;94.20
29803;DHT22;16702;50.898;4.662;2022-09-12T16:04:22;27.20;95.10
29803;DHT22;16702;50.898;4.662;2022-09-12T16:06:56;27.30;94.30
29803;DHT22;16702;50.898;4.662;2022-09-12T16:09:26;27.40;94.30
29803;DHT22;16702;50.898;4.662;2022-09-12T16:11:57;27.40;92.80
29803;DHT22;16702;50.898;4.662;2022-09-12T16:14:28;27.40;93.90
29803;DHT22;16702;50.898;4.662;2022-09-12T16:16:58;27.50;91.90
29803;DHT22;16702;50.898;4.662;2022-09-12T16:19:29;27.40;93.90
29803;DHT22;16702;50.898;4.662;2022-09-12T16:22:02;27.20;95.00
29803;DHT22;16702;50.898;4.662;2022-09-12T16:24:32;27.10;95.50
29803;DHT22;16702;50.898;4.662;2022-09-12T16:27:02;27.00;94.40
29803;DHT22;16702;50.898;4.662;2022-09-12T16:29:33;26.90;93.20
29803;DHT22;16702;50.898;4.662;2022-09-12T16:32:03;26.90;95.00
29803;DHT22;16702;50.898;4.662;2022-09-12T16:34:34;26.70;95.20
29803;DHT22;16702;50.898;4.662;2022-09-12T16:37:07;26.80;94.80
29803;DHT22;16702;50.898;4.662;2022-09-12T16:39:37;26.80;95.60
29803;DHT22;16702;50.898;4.662;2022-09-12T16:42:08;26.70;96.00
29803;DHT22;16702;50.898;4.662;2022-09-12T16:44:38;26.80;96.20
29803;DHT22;16702;50.898;4.662;2022-09-12T16:47:09;26.80;95.80
29803;DHT22;16702;50.898;4.662;2022-09-12T16:49:39;26.70;94.50